createdAt,value
2022-08-17T00:01:04.689Z,0
2022-08-17T00:02:09.879Z,0
2022-08-17T00:02:56.154Z,0
2022-08-17T00:03:43.843Z,0
2022-08-17T00:04:48.477Z,0
2022-08-17T00:05:44.632Z,0
2022-08-17T00:06:44.857Z,0
2022-08-17T00:08:45.322Z,0
2022-08-17T00:09:45.230Z,0
2022-08-17T00:10:49.051Z,0
2022-08-17T00:12:03.855Z,0
2022-08-17T00:13:08.087Z,0
2022-08-17T00:14:01.552Z,0
2022-08-17T00:14:58.753Z,0
2022-08-17T00:15:59.972Z,0
2022-08-17T00:17:13.840Z,0
2022-08-17T00:18:01.865Z,0
2022-08-17T00:19:24.250Z,0
2022-08-17T00:20:02.448Z,0
2022-08-17T00:21:03.382Z,0
2022-08-17T00:22:51.047Z,0
2022-08-17T00:24:08.728Z,0
2022-08-17T00:25:09.234Z,0
2022-08-17T00:26:10.862Z,0
2022-08-17T00:27:10.068Z,0
2022-08-17T00:28:11.521Z,0
2022-08-17T00:29:10.728Z,0
2022-08-17T00:30:11.249Z,0
2022-08-17T00:31:11.477Z,0
2022-08-17T00:33:27.633Z,0
2022-08-17T00:33:45.321Z,0
2022-08-17T00:34:48.148Z,0
2022-08-17T00:35:46.367Z,0
2022-08-17T00:36:46.609Z,0
2022-08-17T00:37:47.197Z,0
2022-08-17T00:38:47.505Z,0
2022-08-17T00:39:47.492Z,0
2022-08-17T00:41:06.800Z,0
2022-08-17T00:41:53.566Z,0
2022-08-17T00:42:49.644Z,0
2022-08-17T00:43:50.960Z,0
2022-08-17T00:44:50.557Z,0
2022-08-17T00:45:51.777Z,0
2022-08-17T00:46:52.274Z,0
2022-08-17T00:47:52.477Z,0
2022-08-17T00:48:53.221Z,0
2022-08-17T00:49:53.138Z,0
2022-08-17T00:50:54.336Z,0
2022-08-17T00:51:54.546Z,0
2022-08-17T00:52:55.224Z,0
2022-08-17T00:53:55.150Z,0
2022-08-17T00:54:59.104Z,0
2022-08-17T00:55:57.257Z,0
2022-08-17T00:56:57.751Z,0
2022-08-17T00:58:01.060Z,0
2022-08-17T00:58:58.325Z,0
2022-08-17T01:00:13.755Z,0
2022-08-17T01:00:59.336Z,0
2022-08-17T01:01:59.575Z,0
2022-08-17T01:02:59.844Z,0
2022-08-17T01:04:05.252Z,0
2022-08-17T01:04:59.885Z,0
2022-08-17T01:06:02.152Z,0
2022-08-17T01:07:01.539Z,0
2022-08-17T01:08:02.019Z,0
2022-08-17T01:09:08.705Z,0
2022-08-17T01:10:02.905Z,0
2022-08-17T01:11:16.656Z,0
2022-08-17T01:12:04.147Z,0
2022-08-17T01:13:04.363Z,0
2022-08-17T01:14:05.581Z,0
2022-08-17T01:15:05.778Z,0
2022-08-17T01:16:06.269Z,0
2022-08-17T01:17:06.194Z,0
2022-08-17T01:18:06.116Z,0
2022-08-17T01:19:06.226Z,0
2022-08-17T01:20:07.446Z,0
2022-08-17T01:21:07.090Z,0
2022-08-17T01:22:08.020Z,0
2022-08-17T01:23:08.822Z,0
2022-08-17T01:24:08.744Z,0
2022-08-17T01:25:10.237Z,0
2022-08-17T01:26:10.151Z,0
2022-08-17T01:27:23.970Z,0
2022-08-17T01:28:12.336Z,0
2022-08-17T01:29:40.640Z,0
2022-08-17T01:31:15.495Z,0
2022-08-17T01:31:41.421Z,0
2022-08-17T01:32:41.766Z,0
2022-08-17T01:33:42.700Z,0
2022-08-17T01:35:01.376Z,0
2022-08-17T01:35:44.870Z,0
2022-08-17T01:36:44.502Z,0
2022-08-17T01:37:45.719Z,0
2022-08-17T01:38:46.215Z,0
2022-08-17T01:39:46.536Z,0
2022-08-17T01:40:46.517Z,0
2022-08-17T01:41:48.019Z,0
2022-08-17T01:42:46.688Z,0
2022-08-17T01:43:48.232Z,0
2022-08-17T01:44:49.649Z,0
2022-08-17T01:45:48.839Z,0
2022-08-17T01:46:49.156Z,0
2022-08-17T01:47:52.672Z,0
2022-08-17T01:48:48.835Z,0
2022-08-17T01:49:50.937Z,0
2022-08-17T01:50:51.705Z,0
2022-08-17T01:51:51.647Z,0
2022-08-17T01:52:51.290Z,0
2022-08-17T01:53:52.908Z,0
2022-08-17T01:54:53.129Z,0
2022-08-17T01:55:54.064Z,0
2022-08-17T01:56:58.382Z,0
2022-08-17T01:57:55.604Z,0
2022-08-17T01:58:55.234Z,0
2022-08-17T01:59:55.673Z,0
2022-08-17T02:01:16.380Z,0
2022-08-17T02:01:57.591Z,0
2022-08-17T02:02:57.909Z,0
2022-08-17T02:04:16.315Z,0
2022-08-17T02:04:59.250Z,0
2022-08-17T02:06:00.452Z,0
2022-08-17T02:07:11.885Z,0
2022-08-17T02:08:36.963Z,0
2022-08-17T02:09:30.822Z,0
2022-08-17T02:10:51.999Z,0
2022-08-17T02:11:37.676Z,0
2022-08-17T02:13:04.229Z,0
2022-08-17T02:13:35.870Z,0
2022-08-17T02:14:37.085Z,0
2022-08-17T02:15:37.996Z,0
2022-08-17T02:16:48.960Z,0
2022-08-17T02:17:38.879Z,0
2022-08-17T02:18:40.374Z,0
2022-08-17T02:19:40.593Z,0
2022-08-17T02:20:58.280Z,0
2022-08-17T02:21:42.195Z,0
2022-08-17T02:22:43.123Z,0
2022-08-17T02:23:43.323Z,0
2022-08-17T02:25:18.138Z,0
2022-08-17T02:25:44.043Z,0
2022-08-17T02:26:45.241Z,0
2022-08-17T02:29:50.778Z,0
2022-08-17T02:31:20.776Z,0
2022-08-17T02:32:33.841Z,0
2022-08-17T02:33:42.380Z,0
2022-08-17T02:34:22.183Z,0
2022-08-17T02:35:27.622Z,0
2022-08-17T02:36:27.272Z,0
2022-08-17T02:37:23.754Z,0
2022-08-17T02:38:24.961Z,0
2022-08-17T02:39:24.976Z,0
2022-08-17T02:40:41.585Z,0
2022-08-17T02:41:29.865Z,0
2022-08-17T02:42:30.781Z,0
2022-08-17T02:43:31.722Z,0
2022-08-17T02:44:56.683Z,0
2022-08-17T02:45:32.909Z,0
2022-08-17T02:46:33.115Z,0
2022-08-17T02:47:33.334Z,0
2022-08-17T02:48:48.062Z,0
2022-08-17T02:49:34.562Z,0
2022-08-17T02:50:34.480Z,0
2022-08-17T02:51:35.793Z,0
2022-08-17T02:53:16.090Z,0
2022-08-17T02:53:41.442Z,0
2022-08-17T02:54:57.573Z,0
2022-08-17T02:55:37.071Z,0
2022-08-17T02:56:37.277Z,0
2022-08-17T02:57:37.784Z,0
2022-08-17T02:58:51.624Z,0
2022-08-17T02:59:37.534Z,0
2022-08-17T03:00:38.722Z,0
2022-08-17T03:01:39.888Z,0
2022-08-17T03:02:40.134Z,0
2022-08-17T03:03:39.776Z,0
2022-08-17T03:04:41.093Z,0
2022-08-17T03:05:41.002Z,0
2022-08-17T03:06:41.929Z,0
2022-08-17T03:07:42.855Z,0
2022-08-17T03:08:43.784Z,0
2022-08-17T03:09:44.279Z,0
2022-08-17T03:10:44.191Z,0
2022-08-17T03:11:45.475Z,0
2022-08-17T03:12:45.890Z,0
2022-08-17T03:13:47.101Z,0
2022-08-17T03:14:52.664Z,0
2022-08-17T03:15:54.793Z,0
2022-08-17T03:16:47.836Z,0
2022-08-17T03:17:49.029Z,0
2022-08-17T03:18:49.248Z,0
2022-08-17T03:19:54.160Z,0
2022-08-17T03:20:50.356Z,0
2022-08-17T03:21:54.995Z,0
2022-08-17T03:23:14.808Z,0
2022-08-17T03:23:59.783Z,0
2022-08-17T03:24:53.282Z,0
2022-08-17T03:25:58.969Z,0
2022-08-17T03:26:54.191Z,0
2022-08-17T03:28:02.520Z,0
2022-08-17T03:28:55.439Z,0
2022-08-17T03:29:55.341Z,0
2022-08-17T03:30:56.268Z,0
2022-08-17T03:31:57.572Z,0
2022-08-17T03:32:57.981Z,0
2022-08-17T03:33:58.178Z,0
2022-08-17T03:34:58.796Z,0
2022-08-17T03:36:00.008Z,0
2022-08-17T03:37:00.218Z,0
2022-08-17T03:38:12.363Z,0
2022-08-17T03:39:02.549Z,0
2022-08-17T03:40:02.167Z,0
2022-08-17T03:41:15.167Z,0
2022-08-17T03:42:03.741Z,0
2022-08-17T03:43:03.940Z,0
2022-08-17T03:44:04.555Z,0
2022-08-17T03:45:09.151Z,0
2022-08-17T03:46:10.872Z,0
2022-08-17T03:47:06.956Z,0
2022-08-17T03:48:07.577Z,0
2022-08-17T03:49:08.471Z,0
2022-08-17T03:50:10.502Z,0
2022-08-17T03:51:14.599Z,0
2022-08-17T03:52:10.861Z,0
2022-08-17T03:53:11.508Z,0
2022-08-17T03:54:13.169Z,0
2022-08-17T03:55:13.099Z,0
2022-08-17T03:56:14.011Z,0
2022-08-17T03:57:14.941Z,0
2022-08-17T03:58:15.893Z,0
2022-08-17T03:59:27.884Z,0
2022-08-17T04:00:17.375Z,0
2022-08-17T04:01:17.954Z,0
2022-08-17T04:02:18.299Z,0
2022-08-17T04:03:19.573Z,0
2022-08-17T04:04:19.533Z,0
2022-08-17T04:05:20.511Z,0
2022-08-17T04:06:21.003Z,0
2022-08-17T04:07:21.199Z,0
2022-08-17T04:08:21.985Z,0
2022-08-17T04:09:22.447Z,0
2022-08-17T04:10:26.344Z,0
2022-08-17T04:11:23.674Z,0
2022-08-17T04:12:23.205Z,0
2022-08-17T04:13:30.325Z,0
2022-08-17T04:14:24.529Z,0
2022-08-17T04:15:24.436Z,0
2022-08-17T04:16:25.626Z,0
2022-08-17T04:17:27.482Z,0
2022-08-17T04:18:28.018Z,0
2022-08-17T04:19:27.512Z,0
2022-08-17T04:20:27.432Z,0
2022-08-17T04:21:28.630Z,0
2022-08-17T04:22:53.873Z,0
2022-08-17T04:23:30.309Z,0
2022-08-17T04:24:30.353Z,0
2022-08-17T04:25:31.570Z,0
2022-08-17T04:27:10.651Z,0
2022-08-17T04:27:32.877Z,0
2022-08-17T04:28:32.886Z,0
2022-08-17T04:30:00.270Z,0
2022-08-17T04:30:34.472Z,0
2022-08-17T04:31:34.964Z,0
2022-08-17T04:33:22.613Z,0
2022-08-17T04:34:39.743Z,0
2022-08-17T04:35:42.572Z,0
2022-08-17T04:36:40.920Z,0
2022-08-17T04:37:42.420Z,5.63
2022-08-17T04:38:42.919Z,5.63
2022-08-17T04:39:44.933Z,5.63
2022-08-17T04:40:44.462Z,5.63
2022-08-17T04:41:48.481Z,5.63
2022-08-17T04:42:45.062Z,5.63
2022-08-17T04:43:45.283Z,5.63
2022-08-17T04:44:54.740Z,5.63
2022-08-17T04:46:01.486Z,5.63
2022-08-17T04:46:47.430Z,5.63
2022-08-17T04:47:47.347Z,5.63
2022-08-17T04:48:52.886Z,5.63
2022-08-17T04:49:48.806Z,5.63
2022-08-17T04:50:49.387Z,5.63
2022-08-17T04:52:09.878Z,5.63
2022-08-17T04:53:18.265Z,5.63
2022-08-17T04:54:18.466Z,11.25
2022-08-17T04:55:18.967Z,11.25
2022-08-17T04:56:27.477Z,11.25
2022-08-17T04:57:19.395Z,11.25
2022-08-17T04:58:20.888Z,11.25
2022-08-17T04:59:21.094Z,11.25
2022-08-17T05:00:22.905Z,11.25
2022-08-17T05:01:29.035Z,11.25
2022-08-17T05:02:24.301Z,11.25
2022-08-17T05:03:24.342Z,11.25
2022-08-17T05:04:49.865Z,16.88
2022-08-17T05:05:26.075Z,16.88
2022-08-17T05:06:25.571Z,16.88
2022-08-17T05:07:37.017Z,16.88
2022-08-17T05:08:25.931Z,16.88
2022-08-17T05:09:27.236Z,16.88
2022-08-17T05:10:27.135Z,16.88
2022-08-17T05:11:28.627Z,16.88
2022-08-17T05:12:29.127Z,16.88
2022-08-17T05:13:29.156Z,16.88
2022-08-17T05:14:38.606Z,22.5
2022-08-17T05:15:33.085Z,22.5
2022-08-17T05:16:31.861Z,22.5
2022-08-17T05:17:32.064Z,22.5
2022-08-17T05:18:35.019Z,22.5
2022-08-17T05:19:33.514Z,22.5
2022-08-17T05:20:33.717Z,22.5
2022-08-17T05:21:33.922Z,22.5
2022-08-17T05:22:34.140Z,22.5
2022-08-17T05:23:50.379Z,22.5
2022-08-17T05:25:08.230Z,22.5
2022-08-17T05:25:52.893Z,22.5
2022-08-17T05:26:49.313Z,22.5
2022-08-17T05:27:48.527Z,22.5
2022-08-17T05:28:48.957Z,22.5
2022-08-17T05:29:50.418Z,22.5
2022-08-17T05:30:39.920Z,22.5
2022-08-17T05:31:40.027Z,22.5
2022-08-17T05:32:54.933Z,22.5
2022-08-17T05:33:46.922Z,28.13
2022-08-17T05:34:43.543Z,28.13
2022-08-17T05:35:44.765Z,28.13
2022-08-17T05:37:00.674Z,28.13
2022-08-17T05:37:45.898Z,28.13
2022-08-17T05:38:46.112Z,28.13
2022-08-17T05:39:46.499Z,28.13
2022-08-17T05:40:50.115Z,28.13
2022-08-17T05:41:47.335Z,28.13
2022-08-17T05:42:47.333Z,28.13
2022-08-17T05:43:50.880Z,28.13
2022-08-17T05:44:48.797Z,28.13
2022-08-17T05:46:12.026Z,33.75
2022-08-17T05:46:48.944Z,33.75
2022-08-17T05:47:49.292Z,33.75
2022-08-17T05:48:55.887Z,33.75
2022-08-17T05:49:54.509Z,33.75
2022-08-17T05:50:52.733Z,33.75
2022-08-17T05:51:51.650Z,33.75
2022-08-17T05:52:52.607Z,33.75
2022-08-17T05:53:56.112Z,33.75
2022-08-17T05:54:54.313Z,33.75
2022-08-17T05:55:54.934Z,33.75
2022-08-17T05:56:54.853Z,33.75
2022-08-17T05:58:07.110Z,39.38
2022-08-17T05:58:56.317Z,39.38
2022-08-17T05:59:56.810Z,39.38
2022-08-17T06:00:58.711Z,39.38
2022-08-17T06:01:57.348Z,39.38
2022-08-17T06:03:04.469Z,39.38
2022-08-17T06:03:59.384Z,39.38
2022-08-17T06:04:59.320Z,39.38
2022-08-17T06:06:00.543Z,39.38
2022-08-17T06:07:00.745Z,39.38
2022-08-17T06:08:01.239Z,39.38
2022-08-17T06:09:02.621Z,39.38
2022-08-17T06:10:01.840Z,39.38
2022-08-17T06:11:03.167Z,39.38
2022-08-17T06:12:14.408Z,39.38
2022-08-17T06:13:03.131Z,39.38
2022-08-17T06:14:03.147Z,39.38
2022-08-17T06:15:04.356Z,39.38
2022-08-17T06:16:05.294Z,45
2022-08-17T06:17:06.426Z,45
2022-08-17T06:18:06.657Z,45
2022-08-17T06:19:06.885Z,45
2022-08-17T06:20:07.388Z,45
2022-08-17T06:21:07.624Z,45
2022-08-17T06:22:07.827Z,45
2022-08-17T06:25:15.482Z,50.63
2022-08-17T06:26:10.686Z,50.63
2022-08-17T06:27:10.284Z,50.63
2022-08-17T06:28:13.783Z,50.63
2022-08-17T06:30:13.207Z,50.63
2022-08-17T06:31:17.120Z,56.25
2022-08-17T06:32:14.360Z,56.25
2022-08-17T06:33:14.866Z,56.25
2022-08-17T06:34:15.307Z,56.25
2022-08-17T06:35:16.546Z,56.25
2022-08-17T06:36:21.454Z,56.25
2022-08-17T06:37:16.881Z,56.25
2022-08-17T06:38:42.119Z,56.25
2022-08-17T06:39:17.757Z,61.88
2022-08-17T06:40:19.323Z,61.88
2022-08-17T06:41:19.527Z,61.88
2022-08-17T06:43:13.172Z,61.88
2022-08-17T06:43:31.334Z,61.88
2022-08-17T06:45:07.551Z,61.88
2022-08-17T06:45:32.053Z,61.88
2022-08-17T06:46:32.265Z,61.88
2022-08-17T06:47:45.362Z,61.88
2022-08-17T06:48:34.000Z,61.88
2022-08-17T06:49:34.938Z,61.88
2022-08-17T06:50:35.144Z,61.88
2022-08-17T06:51:36.069Z,84.38
2022-08-17T06:53:04.035Z,253.13
2022-08-17T06:53:37.670Z,309.38
2022-08-17T06:54:38.692Z,320.63
2022-08-17T06:55:43.278Z,326.25
2022-08-17T06:57:06.379Z,225
2022-08-17T06:57:40.584Z,106.88
2022-08-17T06:58:47.767Z,106.88
2022-08-17T07:00:09.123Z,180
2022-08-17T07:00:41.748Z,213.75
2022-08-17T07:01:43.307Z,427.5
2022-08-17T07:03:09.885Z,326.25
2022-08-17T07:03:44.636Z,281.25
2022-08-17T07:04:44.698Z,433.13
2022-08-17T07:05:45.626Z,562.5
2022-08-17T07:06:49.632Z,483.75
2022-08-17T07:07:46.835Z,303.75
2022-08-17T07:08:50.922Z,185.63
2022-08-17T07:09:47.863Z,185.63
2022-08-17T07:10:49.069Z,146.25
2022-08-17T07:11:49.271Z,202.5
2022-08-17T07:12:50.061Z,258.75
2022-08-17T07:13:57.034Z,146.25
2022-08-17T07:14:52.321Z,225
2022-08-17T07:15:56.480Z,168.75
2022-08-17T07:16:53.159Z,106.88
2022-08-17T07:18:04.984Z,106.88
2022-08-17T07:18:54.715Z,95.63
2022-08-17T07:19:55.520Z,95.63
2022-08-17T07:20:55.528Z,84.38
2022-08-17T07:21:57.038Z,168.75
2022-08-17T07:23:14.249Z,258.75
2022-08-17T07:23:56.876Z,123.75
2022-08-17T07:24:58.258Z,90
2022-08-17T07:25:58.456Z,90
2022-08-17T07:26:59.102Z,90
2022-08-17T07:28:01.307Z,95.63
2022-08-17T07:29:00.231Z,95.63
2022-08-17T07:30:01.161Z,101.25
2022-08-17T07:31:04.177Z,253.13
2022-08-17T07:32:02.690Z,320.63
2022-08-17T07:33:02.616Z,196.88
2022-08-17T07:34:04.156Z,95.63
2022-08-17T07:35:04.152Z,95.63
2022-08-17T07:36:04.691Z,101.25
2022-08-17T07:37:04.052Z,84.38
2022-08-17T07:38:05.511Z,84.38
2022-08-17T07:39:05.292Z,84.38
2022-08-17T07:40:32.519Z,84.38
2022-08-17T07:41:06.758Z,90
2022-08-17T07:42:13.714Z,95.63
2022-08-17T07:43:11.479Z,84.38
2022-08-17T07:44:08.234Z,84.38
2022-08-17T07:45:09.240Z,90
2022-08-17T07:46:09.740Z,84.38
2022-08-17T07:47:11.075Z,84.38
2022-08-17T07:48:10.704Z,84.38
2022-08-17T07:49:10.389Z,84.38
2022-08-17T07:50:11.348Z,101.25
2022-08-17T07:51:11.558Z,90
2022-08-17T07:53:02.994Z,84.38
2022-08-17T07:53:20.502Z,84.38
2022-08-17T07:54:31.644Z,84.38
2022-08-17T07:55:19.918Z,84.38
2022-08-17T07:56:20.430Z,84.38
2022-08-17T07:57:20.641Z,84.38
2022-08-17T07:58:21.289Z,84.38
2022-08-17T07:59:32.630Z,90
2022-08-17T08:00:43.755Z,84.38
2022-08-17T08:01:39.519Z,84.38
2022-08-17T08:02:34.413Z,112.5
2022-08-17T08:03:28.420Z,129.38
2022-08-17T08:05:08.875Z,157.5
2022-08-17T08:06:09.330Z,101.25
2022-08-17T08:07:09.684Z,129.38
2022-08-17T08:08:10.912Z,135
2022-08-17T08:09:10.638Z,90
2022-08-17T08:10:11.269Z,95.63
2022-08-17T08:11:12.483Z,95.63
2022-08-17T08:12:21.560Z,90
2022-08-17T08:13:19.349Z,90
2022-08-17T08:14:14.628Z,90
2022-08-17T08:15:14.849Z,90
2022-08-17T08:16:15.011Z,90
2022-08-17T08:17:20.121Z,101.25
2022-08-17T08:18:16.081Z,101.25
2022-08-17T08:19:20.582Z,90
2022-08-17T08:21:04.831Z,90
2022-08-17T08:21:22.033Z,95.63
2022-08-17T08:22:21.734Z,95.63
2022-08-17T08:23:22.370Z,95.63
2022-08-17T08:24:23.293Z,95.63
2022-08-17T08:25:22.930Z,135
2022-08-17T08:26:29.877Z,331.88
2022-08-17T08:27:23.810Z,765
2022-08-17T08:28:25.038Z,1119.38
2022-08-17T08:29:27.432Z,1085.63
2022-08-17T08:30:26.688Z,1119.38
2022-08-17T08:31:25.910Z,1231.88
2022-08-17T08:32:25.733Z,1141.88
2022-08-17T08:33:27.241Z,1001.25
2022-08-17T08:35:17.431Z,1170
2022-08-17T08:37:51.275Z,1164.38
2022-08-17T08:38:08.095Z,1158.75
2022-08-17T08:39:09.035Z,1085.63
2022-08-17T08:40:10.712Z,1125
2022-08-17T08:41:10.692Z,1130.63
2022-08-17T08:42:11.932Z,1063.13
2022-08-17T08:43:11.569Z,1136.25
2022-08-17T08:44:12.797Z,1164.38
2022-08-17T08:45:22.301Z,1215
2022-08-17T08:46:13.156Z,1220.63
2022-08-17T08:47:14.178Z,1153.13
2022-08-17T08:49:17.283Z,1102.5
2022-08-17T08:50:42.526Z,1198.13
2022-08-17T08:50:59.459Z,1147.5
2022-08-17T08:52:02.547Z,1192.5
2022-08-17T08:53:00.778Z,1192.5
2022-08-17T08:54:00.437Z,1153.13
2022-08-17T08:55:01.374Z,1147.5
2022-08-17T08:56:02.039Z,1186.88
2022-08-17T08:57:45.454Z,1108.13
2022-08-17T08:59:00.080Z,1035
2022-08-17T09:00:09.369Z,1035
2022-08-17T09:01:01.896Z,1018.13
2022-08-17T09:03:02.819Z,939.38
2022-08-17T09:04:50.147Z,916.88
2022-08-17T09:05:30.715Z,871.88
2022-08-17T09:06:56.246Z,663.75
2022-08-17T09:07:28.754Z,528.75
2022-08-17T09:08:28.964Z,326.25
2022-08-17T09:09:29.693Z,607.5
2022-08-17T09:10:30.905Z,759.38
2022-08-17T09:11:30.542Z,815.63
2022-08-17T09:12:31.564Z,832.5
2022-08-17T09:13:32.779Z,821.25
2022-08-17T09:14:52.117Z,613.13
2022-08-17T09:15:34.062Z,680.63
2022-08-17T09:16:35.330Z,849.38
2022-08-17T09:17:36.070Z,731.25
2022-08-17T09:19:18.976Z,646.88
2022-08-17T09:20:06.976Z,720
2022-08-17T09:21:07.540Z,613.13
2022-08-17T09:22:08.157Z,466.88
2022-08-17T09:23:08.698Z,393.75
2022-08-17T09:24:09.209Z,365.63
2022-08-17T09:25:09.447Z,343.13
2022-08-17T09:26:09.691Z,326.25
2022-08-17T09:27:09.626Z,320.63
2022-08-17T09:28:12.235Z,292.5
2022-08-17T09:29:11.482Z,303.75
2022-08-17T09:30:12.793Z,298.13
2022-08-17T09:31:12.706Z,303.75
2022-08-17T09:32:13.654Z,315
2022-08-17T09:33:14.576Z,298.13
2022-08-17T09:34:15.554Z,309.38
2022-08-17T09:35:16.758Z,320.63
2022-08-17T09:36:17.268Z,320.63
2022-08-17T09:37:17.499Z,326.25
2022-08-17T09:38:20.425Z,337.5
2022-08-17T09:39:19.133Z,343.13
2022-08-17T09:40:20.404Z,331.88
2022-08-17T09:41:20.927Z,331.88
2022-08-17T09:42:21.160Z,343.13
2022-08-17T09:43:20.843Z,348.75
2022-08-17T09:44:34.992Z,343.13
2022-08-17T09:45:23.094Z,337.5
2022-08-17T09:46:22.753Z,320.63
2022-08-17T09:47:23.403Z,337.5
2022-08-17T09:48:25.048Z,326.25
2022-08-17T09:49:30.503Z,326.25
2022-08-17T09:51:09.222Z,326.25
2022-08-17T09:51:26.147Z,331.88
2022-08-17T09:52:29.187Z,315
2022-08-17T09:53:31.745Z,320.63
2022-08-17T09:54:56.382Z,303.75
2022-08-17T09:55:30.339Z,303.75
2022-08-17T09:56:30.853Z,275.63
2022-08-17T09:57:46.609Z,264.38
2022-08-17T09:58:39.344Z,275.63
2022-08-17T09:59:43.341Z,253.13
2022-08-17T10:00:32.723Z,253.13
2022-08-17T10:01:33.600Z,275.63
2022-08-17T10:02:33.988Z,253.13
2022-08-17T10:03:34.442Z,241.88
2022-08-17T10:04:40.248Z,253.13
2022-08-17T10:05:35.471Z,270
2022-08-17T10:06:38.524Z,281.25
2022-08-17T10:07:36.210Z,275.63
2022-08-17T10:08:38.775Z,258.75
2022-08-17T10:09:38.026Z,213.75
2022-08-17T10:10:52.278Z,230.63
2022-08-17T10:11:59.636Z,275.63
2022-08-17T10:12:53.275Z,286.88
2022-08-17T10:13:47.244Z,270
2022-08-17T10:15:13.257Z,247.5
2022-08-17T10:15:42.623Z,275.63
2022-08-17T10:16:42.936Z,247.5
2022-08-17T10:17:43.925Z,258.75
2022-08-17T10:18:49.292Z,270
2022-08-17T10:19:49.378Z,264.38
2022-08-17T10:20:45.105Z,270
2022-08-17T10:21:46.338Z,241.88
2022-08-17T10:22:58.383Z,264.38
2022-08-17T10:23:47.595Z,309.38
2022-08-17T10:25:42.828Z,309.38
2022-08-17T10:26:11.558Z,331.88
2022-08-17T10:27:13.467Z,343.13
2022-08-17T10:28:10.688Z,320.63
2022-08-17T10:29:08.015Z,331.88
2022-08-17T10:30:08.170Z,337.5
2022-08-17T10:31:45.071Z,230.63
2022-08-17T10:32:08.700Z,225
2022-08-17T10:33:09.357Z,281.25
2022-08-17T10:34:10.023Z,326.25
2022-08-17T10:35:11.548Z,303.75
2022-08-17T10:36:21.678Z,286.88
2022-08-17T10:37:11.328Z,337.5
2022-08-17T10:38:12.848Z,309.38
2022-08-17T10:39:13.351Z,213.75
2022-08-17T10:40:14.073Z,208.13
2022-08-17T10:41:15.118Z,236.25
2022-08-17T10:42:15.694Z,264.38
2022-08-17T10:43:16.646Z,354.38
2022-08-17T10:44:57.040Z,405
2022-08-17T10:45:17.280Z,410.63
2022-08-17T10:46:46.293Z,405
2022-08-17T10:47:17.968Z,427.5
2022-08-17T10:48:24.141Z,410.63
2022-08-17T10:49:19.057Z,410.63
2022-08-17T10:50:19.997Z,388.13
2022-08-17T10:51:19.977Z,416.25
2022-08-17T10:52:21.196Z,371.25
2022-08-17T10:53:25.064Z,320.63
2022-08-17T10:54:22.007Z,320.63
2022-08-17T10:55:23.236Z,258.75
2022-08-17T10:56:22.886Z,309.38
2022-08-17T10:57:23.826Z,298.13
2022-08-17T10:58:25.039Z,326.25
2022-08-17T10:59:25.658Z,399.38
2022-08-17T11:00:30.982Z,343.13
2022-08-17T11:01:26.630Z,365.63
2022-08-17T11:02:26.542Z,354.38
2022-08-17T11:03:27.756Z,331.88
2022-08-17T11:04:30.642Z,365.63
2022-08-17T11:05:28.561Z,371.25
2022-08-17T11:06:29.471Z,371.25
2022-08-17T11:07:30.716Z,371.25
2022-08-17T11:08:34.230Z,354.38
2022-08-17T11:09:31.444Z,337.5
2022-08-17T11:10:31.677Z,264.38
2022-08-17T11:11:32.407Z,337.5
2022-08-17T11:12:32.636Z,320.63
2022-08-17T11:13:32.556Z,315
2022-08-17T11:14:33.194Z,309.38
2022-08-17T11:15:36.322Z,309.38
2022-08-17T11:16:34.864Z,315
2022-08-17T11:19:36.134Z,320.63
2022-08-17T11:20:37.337Z,309.38
2022-08-17T11:21:38.349Z,315
2022-08-17T11:22:44.808Z,331.88
2022-08-17T11:23:39.836Z,343.13
2022-08-17T11:24:40.051Z,343.13
2022-08-17T11:25:40.816Z,320.63
2022-08-17T11:26:40.745Z,275.63
2022-08-17T11:27:41.704Z,196.88
2022-08-17T11:28:42.958Z,157.5
2022-08-17T11:29:52.058Z,123.75
2022-08-17T11:30:48.945Z,112.5
2022-08-17T11:31:59.653Z,106.88
2022-08-17T11:33:12.732Z,118.13
2022-08-17T11:33:58.982Z,112.5
2022-08-17T11:34:58.903Z,106.88
2022-08-17T11:35:59.561Z,106.88
2022-08-17T11:37:01.198Z,123.75
2022-08-17T11:39:07.623Z,118.13
2022-08-17T11:40:02.645Z,146.25
2022-08-17T11:41:04.164Z,112.5
2022-08-17T11:42:04.904Z,112.5
2022-08-17T11:43:05.190Z,112.5
2022-08-17T11:44:07.080Z,123.75
2022-08-17T11:45:06.584Z,140.63
2022-08-17T11:46:06.808Z,129.38
2022-08-17T11:47:08.841Z,140.63
2022-08-17T11:48:41.248Z,258.75
2022-08-17T11:49:08.756Z,275.63
2022-08-17T11:50:08.983Z,315
2022-08-17T11:51:10.243Z,309.38
2022-08-17T11:52:12.595Z,337.5
2022-08-17T11:53:10.650Z,331.88
2022-08-17T11:54:46.308Z,270
2022-08-17T11:55:51.127Z,298.13
2022-08-17T11:56:13.334Z,298.13
2022-08-17T11:57:13.552Z,298.13
2022-08-17T11:58:13.820Z,275.63
2022-08-17T11:59:15.075Z,236.25
2022-08-17T12:00:15.985Z,253.13
2022-08-17T12:01:18.973Z,219.38
2022-08-17T12:02:17.551Z,185.63
2022-08-17T12:03:17.767Z,180
2022-08-17T12:04:19.056Z,185.63
2022-08-17T12:05:23.227Z,253.13
2022-08-17T12:06:19.150Z,264.38
2022-08-17T12:07:20.360Z,275.63
2022-08-17T12:08:21.613Z,264.38
2022-08-17T12:09:21.521Z,275.63
2022-08-17T12:10:22.772Z,270
2022-08-17T12:12:12.293Z,241.88
2022-08-17T12:13:04.559Z,275.63
2022-08-17T12:14:04.502Z,253.13
2022-08-17T12:15:29.291Z,236.25
2022-08-17T12:16:05.245Z,185.63
2022-08-17T12:17:05.514Z,202.5
2022-08-17T12:18:07.108Z,202.5
2022-08-17T12:19:06.639Z,236.25
2022-08-17T12:20:09.605Z,247.5
2022-08-17T12:21:13.124Z,275.63
2022-08-17T12:22:07.066Z,275.63
2022-08-17T12:23:07.341Z,219.38
2022-08-17T12:24:07.565Z,270
2022-08-17T12:25:08.076Z,281.25
2022-08-17T12:26:08.028Z,275.63
2022-08-17T12:27:08.948Z,270
2022-08-17T12:28:26.418Z,275.63
2022-08-17T12:29:17.976Z,281.25
2022-08-17T12:30:10.550Z,281.25
2022-08-17T12:31:12.061Z,281.25
2022-08-17T12:32:12.769Z,286.88
2022-08-17T12:33:12.891Z,264.38
2022-08-17T12:34:14.124Z,258.75
2022-08-17T12:35:14.645Z,247.5
2022-08-17T12:36:16.025Z,264.38
2022-08-17T12:37:15.374Z,247.5
2022-08-17T12:38:38.080Z,253.13
2022-08-17T12:39:39.262Z,225
2022-08-17T12:40:16.997Z,219.38
2022-08-17T12:41:16.360Z,225
2022-08-17T12:42:24.266Z,230.63
2022-08-17T12:43:18.280Z,230.63
2022-08-17T12:44:19.323Z,236.25
2022-08-17T12:45:19.236Z,219.38
2022-08-17T12:46:32.493Z,230.63
2022-08-17T12:47:29.344Z,241.88
2022-08-17T12:48:21.037Z,236.25
2022-08-17T12:49:21.250Z,241.88
2022-08-17T12:50:40.912Z,247.5
2022-08-17T12:51:21.651Z,253.13
2022-08-17T12:52:22.887Z,270
2022-08-17T12:53:22.444Z,281.25
2022-08-17T12:54:23.683Z,253.13
2022-08-17T12:55:24.688Z,225
2022-08-17T12:56:25.298Z,219.38
2022-08-17T12:57:25.262Z,180
2022-08-17T12:58:29.972Z,213.75
2022-08-17T12:59:43.541Z,157.5
2022-08-17T13:00:26.419Z,129.38
2022-08-17T13:01:26.807Z,84.38
2022-08-17T13:02:26.976Z,112.5
2022-08-17T13:03:32.970Z,78.75
2022-08-17T13:04:29.481Z,84.38
2022-08-17T13:05:28.221Z,84.38
2022-08-17T13:06:27.874Z,95.63
2022-08-17T13:07:29.091Z,61.88
2022-08-17T13:08:29.309Z,61.88
2022-08-17T13:09:41.060Z,61.88
2022-08-17T13:10:37.106Z,73.13
2022-08-17T13:11:31.020Z,90
2022-08-17T13:12:32.230Z,90
2022-08-17T13:13:32.656Z,90
2022-08-17T13:14:34.114Z,90
2022-08-17T13:15:34.194Z,101.25
2022-08-17T13:16:34.859Z,101.25
2022-08-17T13:17:35.514Z,90
2022-08-17T13:18:36.450Z,90
2022-08-17T13:19:56.372Z,90
2022-08-17T13:20:36.726Z,84.38
2022-08-17T13:21:38.068Z,78.75
2022-08-17T13:22:38.280Z,78.75
2022-08-17T13:23:42.709Z,78.75
2022-08-17T13:24:43.989Z,73.13
2022-08-17T13:25:39.925Z,73.13
2022-08-17T13:26:40.590Z,67.5
2022-08-17T13:27:41.834Z,67.5
2022-08-17T13:28:51.909Z,61.88
2022-08-17T13:29:43.120Z,56.25
2022-08-17T13:30:44.084Z,56.25
2022-08-17T13:32:13.668Z,56.25
2022-08-17T13:32:48.828Z,56.25
2022-08-17T13:34:02.374Z,56.25
2022-08-17T13:35:55.892Z,61.88
2022-08-17T13:36:19.369Z,61.88
2022-08-17T13:37:21.776Z,67.5
2022-08-17T13:38:14.147Z,67.5
2022-08-17T13:39:14.783Z,73.13
2022-08-17T13:40:16.515Z,95.63
2022-08-17T13:41:16.471Z,95.63
2022-08-17T13:42:22.260Z,123.75
2022-08-17T13:43:17.634Z,180
2022-08-17T13:44:17.918Z,191.25
2022-08-17T13:45:55.754Z,106.88
2022-08-17T13:46:18.408Z,106.88
2022-08-17T13:47:19.343Z,129.38
2022-08-17T13:48:23.396Z,202.5
2022-08-17T13:49:20.022Z,123.75
2022-08-17T13:50:20.698Z,157.5
2022-08-17T13:51:22.220Z,219.38
2022-08-17T13:52:31.052Z,219.38
2022-08-17T13:53:22.003Z,230.63
2022-08-17T13:54:22.721Z,213.75